KNQX

Key West NAS / Boca Chica Field Airport

Key West, Florida, USA
METAR KNQX 201153Z 04009KT 10SM FEW025 BKN220 17/16 A3018 RMK AO2 SLP216 T01670161 10172 20167 53003
Observed Flight Rules
Jan-20 @ 11:53 UTC (an hour ago) Visual Flight Rules
Wind Visibility Clouds
40° at 9 knots 10 miles
  • Few at 2,500' AGL
  • Broken at 22,000' AGL
Temperatures Readings
Current 17°C / 63°F
Dewpoint 16°C / 61°F
Humidity 94%
Altimeter 30.18" Hg
Pressure 1021.6 hPa
Elevation 2
METAR KNQX 201153Z 04009KT 10SM FEW025 BKN220 17/16 A3018 RMK AO2 SLP216 T01670161 10172 20167 53003
Observed Flight Rules
Jan-20 @ 11:53 UTC
(an hour ago)
VFR
Wind Visibility
40° at 9 knots 10 miles
Clouds
  • Few at 2,500' AGL
  • Broken at 22,000' AGL
Temperature Dewpoint
17°C / 63°F 16°C / 61°F
Humidity Altimeter Pressure
94% 30.18" Hg 1021.6 hPa